sensor_id;sensor_type;location;lat;lon;timestamp;pressure;altitude;pressure_sealevel;temperature;humidity
84734;BME280;74957;48.082;17.260;2024-02-04T00:00:58;1007.435;;;8.773;92.291
84734;BME280;74957;48.082;17.260;2024-02-04T00:05:58;1007.405;;;8.723;92.499
84734;BME280;74957;48.082;17.260;2024-02-04T00:10:57;1007.341;;;8.672;92.639
84734;BME280;74957;48.082;17.260;2024-02-04T00:16:04;1007.362;;;8.622;92.542
84734;BME280;74957;48.082;17.260;2024-02-04T00:21:03;1007.363;;;8.551;92.542
84734;BME280;74957;48.082;17.260;2024-02-04T00:25:59;1007.402;;;8.612;92.542
84734;BME280;74957;48.082;17.260;2024-02-04T00:31:03;1007.402;;;8.551;92.334
84734;BME280;74957;48.082;17.260;2024-02-04T00:36:01;1007.387;;;8.521;92.438
84734;BME280;74957;48.082;17.260;2024-02-04T00:41:02;1007.446;;;8.511;92.334
84734;BME280;74957;48.082;17.260;2024-02-04T00:46:08;1007.484;;;8.541;92.126
84734;BME280;74957;48.082;17.260;2024-02-04T00:51:01;1007.297;;;8.561;91.718
84734;BME280;74957;48.082;17.260;2024-02-04T00:56:04;1007.22;;;8.541;91.718
84734;BME280;74957;48.082;17.260;2024-02-04T01:01:07;1007.149;;;8.491;91.309
84734;BME280;74957;48.082;17.260;2024-02-04T01:06:03;1007.2;;;8.461;91.449
84734;BME280;74957;48.082;17.260;2024-02-04T01:11:00;1007.103;;;8.43;91.248
84734;BME280;74957;48.082;17.260;2024-02-04T01:16:03;1007.075;;;8.4;91.248
84734;BME280;74957;48.082;17.260;2024-02-04T01:21:07;1006.933;;;8.39;91.144
84734;BME280;74957;48.082;17.260;2024-02-04T01:26:03;1007.075;;;8.4;91.04
84734;BME280;74957;48.082;17.260;2024-02-04T01:31:04;1007.07;;;8.39;90.936
84734;BME280;74957;48.082;17.260;2024-02-04T01:36:05;1006.765;;;8.39;90.735
84734;BME280;74957;48.082;17.260;2024-02-04T01:40:58;1006.697;;;8.37;90.631
84734;BME280;74957;48.082;17.260;2024-02-04T01:46:04;1006.68;;;8.4;90.735
84734;BME280;74957;48.082;17.260;2024-02-04T01:51:03;1006.57;;;8.39;90.527
84734;BME280;74957;48.082;17.260;2024-02-04T01:55:55;1006.825;;;8.39;90.527
84734;BME280;74957;48.082;17.260;2024-02-04T02:01:02;1006.764;;;8.43;90.631
84734;BME280;74957;48.082;17.260;2024-02-04T02:05:56;1006.873;;;8.41;90.527
84734;BME280;74957;48.082;17.260;2024-02-04T02:11:03;1006.794;;;8.461;91.04
84734;BME280;74957;48.082;17.260;2024-02-04T02:16:04;1006.726;;;8.41;90.936
84734;BME280;74957;48.082;17.260;2024-02-04T02:21:14;1006.682;;;8.41;91.351
84734;BME280;74957;48.082;17.260;2024-02-04T02:25:58;1006.471;;;8.41;91.553
84734;BME280;74957;48.082;17.260;2024-02-04T02:30:54;1006.471;;;8.41;92.072
84734;BME280;74957;48.082;17.260;2024-02-04T02:36:06;1006.632;;;8.39;93.304
84734;BME280;74957;48.082;17.260;2024-02-04T02:41:03;1006.652;;;8.229;94.269
84734;BME280;74957;48.082;17.260;2024-02-04T02:46:04;1006.42;;;8.128;94.58
84734;BME280;74957;48.082;17.260;2024-02-04T02:50:57;1006.395;;;8.098;94.684
84734;BME280;74957;48.082;17.260;2024-02-04T02:56:00;1006.397;;;8.078;95.404
84734;BME280;74957;48.082;17.260;2024-02-04T03:00:56;1006.145;;;7.977;95.648
84734;BME280;74957;48.082;17.260;2024-02-04T03:05:58;1006.125;;;7.957;95.856
84734;BME280;74957;48.082;17.260;2024-02-04T03:10:58;1006.191;;;7.927;96.167
84734;BME280;74957;48.082;17.260;2024-02-04T03:15:57;1006.446;;;7.967;96.576
84734;BME280;74957;48.082;17.260;2024-02-04T03:21:00;1006.593;;;7.967;96.68
84734;BME280;74957;48.082;17.260;2024-02-04T03:25:57;1006.277;;;8.048;96.326
84734;BME280;74957;48.082;17.260;2024-02-04T03:30:58;1006.467;;;8.189;96.021
84734;BME280;74957;48.082;17.260;2024-02-04T03:36:01;1006.217;;;8.249;95.917
84734;BME280;74957;48.082;17.260;2024-02-04T03:40:58;1006.185;;;8.31;95.459
84734;BME280;74957;48.082;17.260;2024-02-04T03:46:00;1006.211;;;8.279;95.459
84734;BME280;74957;48.082;17.260;2024-02-04T03:51:04;1006.253;;;8.279;95.563
84734;BME280;74957;48.082;17.260;2024-02-04T03:56:02;1006.351;;;8.279;95.355
84734;BME280;74957;48.082;17.260;2024-02-04T04:01:04;1006.33;;;8.209;95.404
84734;BME280;74957;48.082;17.260;2024-02-04T04:06:03;1006.45;;;8.189;95.709
84734;BME280;74957;48.082;17.260;2024-02-04T04:11:02;1006.295;;;8.159;95.502
84734;BME280;74957;48.082;17.260;2024-02-04T04:16:05;1006.406;;;8.189;95.404
84734;BME280;74957;48.082;17.260;2024-02-04T04:21:02;1006.606;;;8.159;95.197
84734;BME280;74957;48.082;17.260;2024-02-04T04:26:07;1006.285;;;8.189;94.885
84734;BME280;74957;48.082;17.260;2024-02-04T04:31:00;1006.36;;;8.259;94.537
84734;BME280;74957;48.082;17.260;2024-02-04T04:36:04;1006.47;;;8.219;94.373
84734;BME280;74957;48.082;17.260;2024-02-04T04:41:00;1006.542;;;8.249;94.269
84734;BME280;74957;48.082;17.260;2024-02-04T04:46:05;1006.615;;;8.229;94.476
84734;BME280;74957;48.082;17.260;2024-02-04T04:51:03;1006.568;;;8.259;94.226
84734;BME280;74957;48.082;17.260;2024-02-04T04:56:01;1006.567;;;8.3;94.33
84734;BME280;74957;48.082;17.260;2024-02-04T05:01:02;1006.574;;;8.3;94.019
84734;BME280;74957;48.082;17.260;2024-02-04T05:05:54;1006.341;;;8.3;93.921
84734;BME280;74957;48.082;17.260;2024-02-04T05:10:58;1006.472;;;8.259;93.817
84734;BME280;74957;48.082;17.260;2024-02-04T05:15:58;1006.507;;;8.31;93.61
84734;BME280;74957;48.082;17.260;2024-02-04T05:20:54;1006.466;;;8.33;93.506
84734;BME280;74957;48.082;17.260;2024-02-04T05:25:56;1006.725;;;8.33;93.61
84734;BME280;74957;48.082;17.260;2024-02-04T05:31:00;1006.724;;;8.3;93.61
84734;BME280;74957;48.082;17.260;2024-02-04T05:35:58;1006.795;;;8.33;93.304
84734;BME280;74957;48.082;17.260;2024-02-04T05:40:57;1006.716;;;8.33;93.304
84734;BME280;74957;48.082;17.260;2024-02-04T05:45:59;1006.877;;;8.33;93.201
84734;BME280;74957;48.082;17.260;2024-02-04T05:50:56;1006.803;;;8.34;93.201
84734;BME280;74957;48.082;17.260;2024-02-04T05:55:57;1006.764;;;8.31;92.993
84734;BME280;74957;48.082;17.260;2024-02-04T06:00:54;1006.913;;;8.33;93.304
84734;BME280;74957;48.082;17.260;2024-02-04T06:05:58;1006.764;;;8.37;92.786
84734;BME280;74957;48.082;17.260;2024-02-04T06:10:56;1006.737;;;8.39;92.688
84734;BME280;74957;48.082;17.260;2024-02-04T06:15:58;1006.852;;;8.43;92.584
84734;BME280;74957;48.082;17.260;2024-02-04T06:21:00;1006.998;;;8.471;92.23
84734;BME280;74957;48.082;17.260;2024-02-04T06:25:58;1006.958;;;8.511;92.438
84734;BME280;74957;48.082;17.260;2024-02-04T06:30:59;1006.975;;;8.592;91.51
84734;BME280;74957;48.082;17.260;2024-02-04T06:36:00;1007.009;;;8.622;91.309
84734;BME280;74957;48.082;17.260;2024-02-04T06:40:58;1007.022;;;8.692;90.894
84734;BME280;74957;48.082;17.260;2024-02-04T06:46:04;1007.072;;;8.692;90.381
84734;BME280;74957;48.082;17.260;2024-02-04T06:51:01;1007.163;;;8.763;90.033
84734;BME280;74957;48.082;17.260;2024-02-04T06:56:00;1007.429;;;8.884;89.722
84734;BME280;74957;48.082;17.260;2024-02-04T07:01:36;1007.409;;;8.904;89.313
84734;BME280;74957;48.082;17.260;2024-02-04T07:05:58;1007.539;;;9.055;88.556
84734;BME280;74957;48.082;17.260;2024-02-04T07:10:57;1007.577;;;9.387;87.14
84734;BME280;74957;48.082;17.260;2024-02-04T07:15:57;1007.516;;;9.649;86.383
84734;BME280;74957;48.082;17.260;2024-02-04T07:21:06;1007.852;;;10.082;84.869
84734;BME280;74957;48.082;17.260;2024-02-04T07:26:09;1007.477;;;10.203;83.539
84734;BME280;74957;48.082;17.260;2024-02-04T07:31:08;1007.43;;;10.324;83.295
84734;BME280;74957;48.082;17.260;2024-02-04T07:36:11;1007.307;;;10.304;82.983
84734;BME280;74957;48.082;17.260;2024-02-04T07:41:06;1007.279;;;10.455;82.678
84734;BME280;74957;48.082;17.260;2024-02-04T07:46:05;1007.274;;;10.435;81.757
84734;BME280;74957;48.082;17.260;2024-02-04T07:51:06;1007.473;;;10.535;80.798
84734;BME280;74957;48.082;17.260;2024-02-04T07:56:07;1007.453;;;10.837;81.378
84734;BME280;74957;48.082;17.260;2024-02-04T08:01:06;1007.363;;;11.029;78.882
84734;BME280;74957;48.082;17.260;2024-02-04T08:06:05;1007.256;;;11.301;78.949
84734;BME280;74957;48.082;17.260;2024-02-04T08:11:05;1007.066;;;11.331;78.235
84734;BME280;74957;48.082;17.260;2024-02-04T08:16:05;1007.229;;;11.25;78.235
84734;BME280;74957;48.082;17.260;2024-02-04T08:21:07;1007.308;;;11.724;77.246
84734;BME280;74957;48.082;17.260;2024-02-04T08:26:06;1007.129;;;11.975;76.288
84734;BME280;74957;48.082;17.260;2024-02-04T08:31:05;1007.273;;;12.197;74.725
84734;BME280;74957;48.082;17.260;2024-02-04T08:36:06;1007.185;;;12.096;74.725
84734;BME280;74957;48.082;17.260;2024-02-04T08:41:05;1007.173;;;12.449;73.572
84734;BME280;74957;48.082;17.260;2024-02-04T08:46:10;1007.106;;;12.67;73.126
84734;BME280;74957;48.082;17.260;2024-02-04T08:51:00;1007.107;;;12.751;72.992
84734;BME280;74957;48.082;17.260;2024-02-04T08:56:05;1007.157;;;12.902;72.174
84734;BME280;74957;48.082;17.260;2024-02-04T09:01:02;1007.19;;;13.436;71.161
84734;BME280;74957;48.082;17.260;2024-02-04T09:06:01;1007.092;;;13.919;69.47
84734;BME280;74957;48.082;17.260;2024-02-04T09:11:01;1007.112;;;14.453;67.676
84734;BME280;74957;48.082;17.260;2024-02-04T09:16:03;1007.063;;;14.956;65.686
84734;BME280;74957;48.082;17.260;2024-02-04T09:21:00;1007.128;;;15.037;65.149
84734;BME280;74957;48.082;17.260;2024-02-04T09:26:02;1007.155;;;15.52;64.178
84734;BME280;74957;48.082;17.260;2024-02-04T09:31:00;1007.163;;;14.936;65.485
84734;BME280;74957;48.082;17.260;2024-02-04T09:36:06;1007.139;;;15.42;63.904
84734;BME280;74957;48.082;17.260;2024-02-04T09:41:05;1007.202;;;15.822;63.336
84734;BME280;74957;48.082;17.260;2024-02-04T09:46:03;1007.232;;;16.578;61.432
84734;BME280;74957;48.082;17.260;2024-02-04T09:51:00;1007.295;;;16.779;60.089
84734;BME280;74957;48.082;17.260;2024-02-04T09:56:04;1007.348;;;16.819;59.583
84734;BME280;74957;48.082;17.260;2024-02-04T10:01:00;1007.285;;;15.933;61.188
84734;BME280;74957;48.082;17.260;2024-02-04T10:06:03;1006.962;;;15.54;63.47
84734;BME280;74957;48.082;17.260;2024-02-04T10:11:01;1006.739;;;15.339;64.008
84734;BME280;74957;48.082;17.260;2024-02-04T10:16:03;1006.594;;;15.067;64.441
84734;BME280;74957;48.082;17.260;2024-02-04T10:21:04;1006.551;;;14.473;65.546
84734;BME280;74957;48.082;17.260;2024-02-04T10:26:04;1006.541;;;14.02;67.639
84734;BME280;74957;48.082;17.260;2024-02-04T10:31:04;1006.626;;;13.617;68.719
84734;BME280;74957;48.082;17.260;2024-02-04T10:36:04;1006.454;;;13.416;69.531
84734;BME280;74957;48.082;17.260;2024-02-04T10:40:59;1006.5;;;13.043;70.514
84734;BME280;74957;48.082;17.260;2024-02-04T10:46:13;1006.4;;;12.711;71.497
84734;BME280;74957;48.082;17.260;2024-02-04T10:51:01;1006.277;;;12.67;72.107
84734;BME280;74957;48.082;17.260;2024-02-04T10:56:07;1006.131;;;12.771;72.687
84734;BME280;74957;48.082;17.260;2024-02-04T11:01:03;1006.07;;;12.852;72.174
84734;BME280;74957;48.082;17.260;2024-02-04T11:06:13;1005.935;;;12.751;72.888
84734;BME280;74957;48.082;17.260;2024-02-04T11:11:09;1005.979;;;12.63;72.821
84734;BME280;74957;48.082;17.260;2024-02-04T11:16:13;1005.967;;;12.63;73.639
84734;BME280;74957;48.082;17.260;2024-02-04T11:21:25;1005.742;;;12.549;73.431
84734;BME280;74957;48.082;17.260;2024-02-04T11:26:06;1005.821;;;12.469;73.975
84734;BME280;74957;48.082;17.260;2024-02-04T11:31:12;1005.65;;;12.419;73.877
84734;BME280;74957;48.082;17.260;2024-02-04T11:36:06;1005.663;;;12.368;73.669
84734;BME280;74957;48.082;17.260;2024-02-04T11:41:07;1005.624;;;12.63;74.146
84734;BME280;74957;48.082;17.260;2024-02-04T11:46:06;1005.845;;;12.711;74.042
84734;BME280;74957;48.082;17.260;2024-02-04T11:51:09;1005.811;;;12.67;74.451
84734;BME280;74957;48.082;17.260;2024-02-04T11:56:05;1005.824;;;12.6;73.737
84734;BME280;74957;48.082;17.260;2024-02-04T12:01:04;1005.702;;;12.549;74.554
84734;BME280;74957;48.082;17.260;2024-02-04T12:06:06;1005.949;;;12.429;74.689
84734;BME280;74957;48.082;17.260;2024-02-04T12:11:06;1005.915;;;12.338;75.403
84734;BME280;74957;48.082;17.260;2024-02-04T12:16:02;1005.859;;;12.348;75.604
84734;BME280;74957;48.082;17.260;2024-02-04T12:20:59;1005.671;;;12.419;75.812
84734;BME280;74957;48.082;17.260;2024-02-04T12:25:59;1005.588;;;12.419;75.403
84734;BME280;74957;48.082;17.260;2024-02-04T12:31:01;1005.655;;;12.378;75.403
84734;BME280;74957;48.082;17.260;2024-02-04T12:36:03;1005.361;;;12.278;75.336
84734;BME280;74957;48.082;17.260;2024-02-04T12:41:04;1005.485;;;12.217;75.232
84734;BME280;74957;48.082;17.260;2024-02-04T12:46:13;1005.597;;;11.935;76.086
84734;BME280;74957;48.082;17.260;2024-02-04T12:51:03;1005.399;;;11.714;76.935
84734;BME280;74957;48.082;17.260;2024-02-04T12:56:00;1005.321;;;11.754;77.649
84734;BME280;74957;48.082;17.260;2024-02-04T13:01:03;1005.009;;;11.875;77.307
84734;BME280;74957;48.082;17.260;2024-02-04T13:06:01;1005.056;;;11.905;77.515
84734;BME280;74957;48.082;17.260;2024-02-04T13:11:00;1005.179;;;11.965;77.002
84734;BME280;74957;48.082;17.260;2024-02-04T13:16:00;1004.984;;;11.945;77.106
84734;BME280;74957;48.082;17.260;2024-02-04T13:21:00;1004.864;;;11.935;77.106
84734;BME280;74957;48.082;17.260;2024-02-04T13:26:00;1005.13;;;11.885;77.618
84734;BME280;74957;48.082;17.260;2024-02-04T13:31:02;1004.732;;;11.915;77.411
84734;BME280;74957;48.082;17.260;2024-02-04T13:36:01;1004.679;;;11.824;77.209
84734;BME280;74957;48.082;17.260;2024-02-04T13:41:00;1004.672;;;11.764;77.344
84734;BME280;74957;48.082;17.260;2024-02-04T13:46:13;1004.774;;;11.784;77.039
84734;BME280;74957;48.082;17.260;2024-02-04T13:51:00;1004.759;;;11.734;77.142
84734;BME280;74957;48.082;17.260;2024-02-04T13:55:58;1004.742;;;11.663;77.039
84734;BME280;74957;48.082;17.260;2024-02-04T14:01:05;1004.878;;;11.663;77.551
84734;BME280;74957;48.082;17.260;2024-02-04T14:05:59;1004.668;;;11.613;77.96
84734;BME280;74957;48.082;17.260;2024-02-04T14:11:02;1004.786;;;11.573;77.686
84734;BME280;74957;48.082;17.260;2024-02-04T14:16:04;1004.542;;;11.603;77.649
84734;BME280;74957;48.082;17.260;2024-02-04T14:20:58;1004.62;;;11.532;77.484
84734;BME280;74957;48.082;17.260;2024-02-04T14:26:02;1004.522;;;11.512;77.283
84734;BME280;74957;48.082;17.260;2024-02-04T14:31:07;1004.263;;;11.482;77.789
84734;BME280;74957;48.082;17.260;2024-02-04T14:36:06;1004.275;;;11.391;77.179
84734;BME280;74957;48.082;17.260;2024-02-04T14:41:11;1004.339;;;11.351;77.417
84734;BME280;74957;48.082;17.260;2024-02-04T14:46:06;1004.272;;;11.351;77.313
84734;BME280;74957;48.082;17.260;2024-02-04T14:51:06;1004.276;;;11.25;77.625
84734;BME280;74957;48.082;17.260;2024-02-04T14:56:06;1004.183;;;11.14;77.966
84734;BME280;74957;48.082;17.260;2024-02-04T15:01:19;1004.314;;;11.019;78.271
84734;BME280;74957;48.082;17.260;2024-02-04T15:06:05;1004.147;;;10.958;78.986
84734;BME280;74957;48.082;17.260;2024-02-04T15:11:06;1004.179;;;10.868;79.431
84734;BME280;74957;48.082;17.260;2024-02-04T15:16:13;1004.242;;;10.837;79.639
84734;BME280;74957;48.082;17.260;2024-02-04T15:21:07;1004.282;;;10.686;80.188
84734;BME280;74957;48.082;17.260;2024-02-04T15:26:12;1004.375;;;10.636;80.286
84734;BME280;74957;48.082;17.260;2024-02-04T15:31:06;1004.223;;;10.666;80.286
84734;BME280;74957;48.082;17.260;2024-02-04T15:36:07;1004.198;;;10.666;80.188
84734;BME280;74957;48.082;17.260;2024-02-04T15:41:03;1004.144;;;10.666;80.188
84734;BME280;74957;48.082;17.260;2024-02-04T15:46:10;1004.06;;;10.626;80.493
84734;BME280;74957;48.082;17.260;2024-02-04T15:51:05;1004.359;;;10.535;80.493
84734;BME280;74957;48.082;17.260;2024-02-04T15:56:08;1004.139;;;10.505;80.695
84734;BME280;74957;48.082;17.260;2024-02-04T16:01:14;1004.006;;;10.475;80.798
84734;BME280;74957;48.082;17.260;2024-02-04T16:06:08;1003.883;;;10.414;81.042
84734;BME280;74957;48.082;17.260;2024-02-04T16:11:05;1003.905;;;10.384;81.451
84734;BME280;74957;48.082;17.260;2024-02-04T16:16:06;1003.949;;;10.435;81.451
84734;BME280;74957;48.082;17.260;2024-02-04T16:20:55;1003.881;;;10.435;80.939
84734;BME280;74957;48.082;17.260;2024-02-04T16:25:56;1003.752;;;10.435;80.939
84734;BME280;74957;48.082;17.260;2024-02-04T16:31:02;1003.918;;;10.404;80.939
84734;BME280;74957;48.082;17.260;2024-02-04T16:35:57;1003.857;;;10.455;80.328
84734;BME280;74957;48.082;17.260;2024-02-04T16:40:58;1003.82;;;10.455;80.53
84734;BME280;74957;48.082;17.260;2024-02-04T16:45:58;1003.946;;;10.505;80.493
84734;BME280;74957;48.082;17.260;2024-02-04T16:50:52;1003.867;;;10.515;80.902
84734;BME280;74957;48.082;17.260;2024-02-04T16:55:56;1003.756;;;10.515;80.597
84734;BME280;74957;48.082;17.260;2024-02-04T17:00:57;1003.941;;;10.515;80.695
84734;BME280;74957;48.082;17.260;2024-02-04T17:05:56;1003.945;;;10.535;80.798
84734;BME280;74957;48.082;17.260;2024-02-04T17:10:56;1003.927;;;10.535;80.902
84734;BME280;74957;48.082;17.260;2024-02-04T17:15:59;1003.934;;;10.596;81.006
84734;BME280;74957;48.082;17.260;2024-02-04T17:20:54;1003.874;;;10.656;81.207
84734;BME280;74957;48.082;17.260;2024-02-04T17:26:01;1003.905;;;10.696;81.104
84734;BME280;74957;48.082;17.260;2024-02-04T17:30:54;1003.842;;;10.686;81.104
84734;BME280;74957;48.082;17.260;2024-02-04T17:35:56;1003.785;;;10.747;80.969
84734;BME280;74957;48.082;17.260;2024-02-04T17:40:53;1003.972;;;10.706;80.969
84734;BME280;74957;48.082;17.260;2024-02-04T17:46:07;1004.086;;;10.737;80.658
84734;BME280;74957;48.082;17.260;2024-02-04T17:50:57;1004.065;;;10.686;80.902
84734;BME280;74957;48.082;17.260;2024-02-04T17:55:55;1004.226;;;10.696;80.597
84734;BME280;74957;48.082;17.260;2024-02-04T18:00:59;1003.99;;;10.747;79.742
84734;BME280;74957;48.082;17.260;2024-02-04T18:06:04;1003.943;;;10.737;79.944
84734;BME280;74957;48.082;17.260;2024-02-04T18:11:13;1003.949;;;10.767;79.639
84734;BME280;74957;48.082;17.260;2024-02-04T18:16:08;1003.831;;;10.747;79.742
84734;BME280;74957;48.082;17.260;2024-02-04T18:21:02;1003.793;;;10.747;79.944
84734;BME280;74957;48.082;17.260;2024-02-04T18:26:05;1003.722;;;10.767;80.151
84734;BME280;74957;48.082;17.260;2024-02-04T18:31:02;1003.804;;;10.737;80.865
84734;BME280;74957;48.082;17.260;2024-02-04T18:36:00;1003.682;;;10.706;80.353
84734;BME280;74957;48.082;17.260;2024-02-04T18:41:02;1003.631;;;10.686;80.286
84734;BME280;74957;48.082;17.260;2024-02-04T18:46:05;1003.66;;;10.747;79.944
84734;BME280;74957;48.082;17.260;2024-02-04T18:50:58;1003.437;;;10.787;79.23
84734;BME280;74957;48.082;17.260;2024-02-04T18:56:03;1003.488;;;10.817;79.022
84734;BME280;74957;48.082;17.260;2024-02-04T19:01:18;1003.559;;;10.888;79.022
84734;BME280;74957;48.082;17.260;2024-02-04T19:06:05;1003.5;;;10.817;80.658
84734;BME280;74957;48.082;17.260;2024-02-04T19:11:05;1003.45;;;10.777;82.092
84734;BME280;74957;48.082;17.260;2024-02-04T19:16:13;1003.682;;;10.656;82.947
84734;BME280;74957;48.082;17.260;2024-02-04T19:21:06;1003.773;;;10.626;83.356
84734;BME280;74957;48.082;17.260;2024-02-04T19:26:03;1003.594;;;10.505;84.79
84734;BME280;74957;48.082;17.260;2024-02-04T19:31:01;1003.345;;;10.505;85.504
84734;BME280;74957;48.082;17.260;2024-02-04T19:35:56;1003.456;;;10.404;86.053
84734;BME280;74957;48.082;17.260;2024-02-04T19:40:59;1003.288;;;10.384;87.488
84734;BME280;74957;48.082;17.260;2024-02-04T19:45:56;1003.115;;;10.273;87.592
84734;BME280;74957;48.082;17.260;2024-02-04T19:50:56;1002.794;;;10.233;88.348
84734;BME280;74957;48.082;17.260;2024-02-04T19:55:55;1002.738;;;10.223;89.374
84734;BME280;74957;48.082;17.260;2024-02-04T20:01:00;1002.806;;;10.183;88.861
84734;BME280;74957;48.082;17.260;2024-02-04T20:05:55;1002.631;;;10.263;88.617
84734;BME280;74957;48.082;17.260;2024-02-04T20:10:56;1002.62;;;10.253;89.984
84734;BME280;74957;48.082;17.260;2024-02-04T20:15:59;1002.659;;;10.233;89.27
84734;BME280;74957;48.082;17.260;2024-02-04T20:20:59;1002.673;;;10.203;89.984
84734;BME280;74957;48.082;17.260;2024-02-04T20:25:55;1002.588;;;10.112;90.601
84734;BME280;74957;48.082;17.260;2024-02-04T20:30:54;1002.599;;;10.183;89.783
84734;BME280;74957;48.082;17.260;2024-02-04T20:35:55;1002.599;;;10.153;89.886
84734;BME280;74957;48.082;17.260;2024-02-04T20:40:54;1002.763;;;10.183;89.783
84734;BME280;74957;48.082;17.260;2024-02-04T20:45:56;1002.667;;;10.183;89.783
84734;BME280;74957;48.082;17.260;2024-02-04T20:50:57;1002.681;;;10.223;89.575
84734;BME280;74957;48.082;17.260;2024-02-04T20:56:02;1002.442;;;10.223;89.27
84734;BME280;74957;48.082;17.260;2024-02-04T21:00:56;1002.304;;;10.233;89.471
84734;BME280;74957;48.082;17.260;2024-02-04T21:06:02;1002.48;;;10.324;88.715
84734;BME280;74957;48.082;17.260;2024-02-04T21:10:55;1002.652;;;10.384;88.306
84734;BME280;74957;48.082;17.260;2024-02-04T21:15:57;1002.575;;;10.455;88.922
84734;BME280;74957;48.082;17.260;2024-02-04T21:20:56;1002.327;;;10.435;89.435
84734;BME280;74957;48.082;17.260;2024-02-04T21:25:55;1002.36;;;10.404;91.174
84734;BME280;74957;48.082;17.260;2024-02-04T21:31:12;1002.042;;;10.263;91.992
84734;BME280;74957;48.082;17.260;2024-02-04T21:36:08;1002.085;;;10.153;92.749
84734;BME280;74957;48.082;17.260;2024-02-04T21:41:04;1001.934;;;10.153;93.671
84734;BME280;74957;48.082;17.260;2024-02-04T21:46:02;1002.065;;;10.082;93.878
84734;BME280;74957;48.082;17.260;2024-02-04T21:51:04;1001.829;;;10.042;93.304
84734;BME280;74957;48.082;17.260;2024-02-04T21:56:03;1001.717;;;10.112;92.444
84734;BME280;74957;48.082;17.260;2024-02-04T22:01:04;1001.561;;;10.263;90.662
84734;BME280;74957;48.082;17.260;2024-02-04T22:06:03;1001.584;;;10.374;89.844
84734;BME280;74957;48.082;17.260;2024-02-04T22:11:03;1001.748;;;10.555;89.087
84734;BME280;74957;48.082;17.260;2024-02-04T22:16:05;1001.69;;;10.505;89.594
84734;BME280;74957;48.082;17.260;2024-02-04T22:21:08;1001.421;;;10.535;88.983
84734;BME280;74957;48.082;17.260;2024-02-04T22:26:04;1001.592;;;10.485;89.697
84734;BME280;74957;48.082;17.260;2024-02-04T22:31:06;1001.787;;;10.515;90.002
84734;BME280;74957;48.082;17.260;2024-02-04T22:36:05;1001.651;;;10.555;89.801
84734;BME280;74957;48.082;17.260;2024-02-04T22:41:04;1001.693;;;10.596;90.314
84734;BME280;74957;48.082;17.260;2024-02-04T22:46:02;1001.644;;;10.535;90.314
84734;BME280;74957;48.082;17.260;2024-02-04T22:51:01;1001.543;;;10.535;91.132
84734;BME280;74957;48.082;17.260;2024-02-04T22:56:00;1001.513;;;10.475;91.437
84734;BME280;74957;48.082;17.260;2024-02-04T23:01:21;1001.637;;;10.435;91.785
84734;BME280;74957;48.082;17.260;2024-02-04T23:06:04;1001.552;;;10.414;92.914
84734;BME280;74957;48.082;17.260;2024-02-04T23:11:04;1001.702;;;10.324;93.427
84734;BME280;74957;48.082;17.260;2024-02-04T23:16:00;1001.813;;;10.304;94.244
84734;BME280;74957;48.082;17.260;2024-02-04T23:20:54;1001.858;;;10.273;94.342
84734;BME280;74957;48.082;17.260;2024-02-04T23:25:57;1001.622;;;10.273;94.653
84734;BME280;74957;48.082;17.260;2024-02-04T23:30:54;1001.615;;;10.273;94.653
84734;BME280;74957;48.082;17.260;2024-02-04T23:35:54;1001.608;;;10.253;95.312
84734;BME280;74957;48.082;17.260;2024-02-04T23:40:56;1001.321;;;10.223;95.618
84734;BME280;74957;48.082;17.260;2024-02-04T23:45:59;1001.272;;;10.193;95.312
84734;BME280;74957;48.082;17.260;2024-02-04T23:50:57;1001.438;;;10.223;95.514
84734;BME280;74957;48.082;17.260;2024-02-04T23:56:01;1001.199;;;10.153;95.819
